Time;durP1;ratioP1;P1;durP2;ratioP2;P2;SDS_P1;SDS_P2;PMS_P1;PMS_P2;Temp;Humidity;BMP_temperature;BMP_pressure;BME280_temperature;BME280_humidity;BME280_pressure;Samples;Min_cycle;Max_cycle;Signal;HPM_P1;HPM_P2
2021/06/09 00:00:02;;;;;;;12.35;11.13;;;17.30;99.90;;;;;;4996500;28;20018;-72
2021/06/09 00:02:33;;;;;;;11.57;10.13;;;17.30;99.90;;;;;;4991818;28;20050;-72
2021/06/09 00:04:58;;;;;;;12.93;10.32;;;17.20;99.90;;;;;;4996194;28;20026;-72
2021/06/09 00:07:24;;;;;;;11.93;10.73;;;17.30;99.90;;;;;;4994612;28;20094;-72
2021/06/09 00:09:50;;;;;;;12.13;10.25;;;17.30;99.90;;;;;;4992167;28;20034;-72
2021/06/09 00:12:15;;;;;;;12.40;10.95;;;17.30;99.90;;;;;;4991131;28;20054;-72
2021/06/09 00:14:41;;;;;;;12.07;10.32;;;17.20;99.90;;;;;;4993366;28;20470;-72
2021/06/09 00:17:14;;;;;;;11.82;10.10;;;17.20;99.90;;;;;;4984540;28;20041;-72
2021/06/09 00:19:41;;;;;;;12.98;10.30;;;17.20;99.90;;;;;;4990776;28;20041;-72
2021/06/09 00:22:07;;;;;;;12.88;11.10;;;17.20;99.90;;;;;;4993305;28;20148;-72
2021/06/09 00:24:33;;;;;;;12.73;10.93;;;17.20;99.90;;;;;;4991815;28;20105;-71
2021/06/09 00:26:59;;;;;;;12.70;11.15;;;17.20;99.90;;;;;;4996952;28;20030;-72
2021/06/09 00:29:24;;;;;;;12.50;10.82;;;17.10;99.90;;;;;;4990299;28;20034;-72
2021/06/09 00:31:50;;;;;;;13.63;11.38;;;17.10;99.90;;;;;;4994443;28;20097;-72
2021/06/09 00:34:18;;;;;;;11.70;10.50;;;17.10;99.90;;;;;;4988361;28;20053;-72
2021/06/09 00:36:47;;;;;;;12.90;10.73;;;17.10;99.90;;;;;;4980119;28;20039;-72
2021/06/09 00:39:15;;;;;;;12.70;11.27;;;17.10;99.90;;;;;;4986716;28;20030;-72
2021/06/09 00:41:43;;;;;;;14.05;11.98;;;17.10;99.90;;;;;;4986258;28;20114;-72
2021/06/09 00:44:10;;;;;;;11.93;10.70;;;17.10;99.90;;;;;;4977016;28;20034;-72
2021/06/09 00:46:37;;;;;;;13.25;11.80;;;17.10;99.90;;;;;;4978448;28;20104;-72
2021/06/09 00:49:04;;;;;;;14.40;12.90;;;17.00;99.90;;;;;;4976208;28;20034;-72
2021/06/09 00:51:31;;;;;;;13.88;11.45;;;17.10;99.90;;;;;;4992028;28;20041;-72
2021/06/09 00:54:08;;;;;;;12.85;11.48;;;17.10;99.90;;;;;;4976278;28;20034;-72
2021/06/09 00:56:36;;;;;;;12.18;10.88;;;17.10;99.90;;;;;;4974139;28;20388;-72
2021/06/09 00:59:05;;;;;;;14.07;11.10;;;17.00;99.90;;;;;;4975709;28;20033;-72
2021/06/09 01:01:31;;;;;;;14.25;11.30;;;17.00;99.90;;;;;;4986718;28;20038;-72
2021/06/09 01:03:59;;;;;;;13.20;11.80;;;17.00;99.90;;;;;;4986224;28;20045;-72
2021/06/09 01:06:28;;;;;;;13.88;12.27;;;17.00;99.90;;;;;;4986743;28;20034;-72
2021/06/09 01:08:55;;;;;;;13.60;11.98;;;17.00;99.90;;;;;;4974533;28;20088;-71
2021/06/09 01:11:30;;;;;;;14.77;12.98;;;17.00;99.90;;;;;;4976366;28;20045;-72
2021/06/09 01:13:58;;;;;;;14.52;12.20;;;17.00;99.90;;;;;;4986230;28;20042;-72
2021/06/09 01:16:24;;;;;;;13.00;11.15;;;17.00;99.90;;;;;;4974884;28;20034;-71
2021/06/09 01:18:50;;;;;;;13.13;11.75;;;17.00;99.90;;;;;;4975740;28;20026;-72
2021/06/09 01:21:33;;;;;;;14.15;11.55;;;17.00;99.90;;;;;;4975271;28;20461;-72
2021/06/09 01:23:59;;;;;;;15.95;13.40;;;17.00;99.90;;;;;;4985016;28;20029;-72
2021/06/09 01:26:26;;;;;;;13.75;11.32;;;17.00;99.90;;;;;;4981396;28;20048;-71
2021/06/09 01:28:57;;;;;;;13.27;11.48;;;17.00;99.90;;;;;;4990038;28;20034;-72
2021/06/09 01:31:28;;;;;;;14.13;12.65;;;17.00;99.90;;;;;;4984430;28;20038;-72
2021/06/09 01:33:53;;;;;;;13.77;11.25;;;17.00;99.90;;;;;;4995415;28;20041;-72
2021/06/09 01:36:22;;;;;;;13.05;11.63;;;17.00;99.90;;;;;;4976419;28;20579;-72
2021/06/09 01:38:52;;;;;;;13.38;11.45;;;17.00;99.90;;;;;;4991205;28;20015;-72
2021/06/09 01:41:29;;;;;;;12.52;11.30;;;17.00;99.90;;;;;;4997633;28;20449;-72
2021/06/09 01:43:57;;;;;;;12.93;11.63;;;17.00;99.90;;;;;;4992353;28;20480;-72
2021/06/09 01:46:23;;;;;;;12.77;11.13;;;17.00;99.90;;;;;;4991875;28;20070;-72
2021/06/09 01:48:49;;;;;;;13.30;11.90;;;17.00;99.90;;;;;;4975924;28;20046;-72
2021/06/09 01:51:18;;;;;;;14.20;11.85;;;16.90;99.90;;;;;;4971760;28;20041;-72
2021/06/09 01:53:46;;;;;;;15.02;11.88;;;16.90;99.90;;;;;;4976967;28;20121;-72
2021/06/09 01:56:14;;;;;;;14.10;11.93;;;16.90;99.90;;;;;;4980325;28;20062;-73
2021/06/09 01:58:40;;;;;;;13.80;11.68;;;16.90;99.90;;;;;;4975975;28;20046;-71
2021/06/09 02:01:08;;;;;;;14.65;12.18;;;16.80;99.90;;;;;;4976750;28;20038;-71
2021/06/09 02:03:36;;;;;;;12.73;11.20;;;16.80;99.90;;;;;;4981788;28;20168;-72
2021/06/09 02:06:04;;;;;;;13.68;12.18;;;16.80;99.90;;;;;;4990716;28;20019;-72
2021/06/09 02:08:29;;;;;;;13.65;12.10;;;16.80;99.90;;;;;;4997994;28;20113;-72
2021/06/09 02:10:55;;;;;;;15.52;12.55;;;16.80;99.90;;;;;;4989578;28;20133;-72
2021/06/09 02:13:23;;;;;;;15.15;13.38;;;16.80;99.90;;;;;;4993919;28;20349;-72
2021/06/09 02:15:54;;;;;;;13.15;11.77;;;16.80;99.90;;;;;;4996821;28;20034;-72
2021/06/09 02:18:28;;;;;;;13.45;11.95;;;16.80;99.90;;;;;;4995311;28;20026;-72
2021/06/09 02:20:57;;;;;;;13.40;11.45;;;16.70;99.90;;;;;;4994525;28;20376;-72
2021/06/09 02:23:25;;;;;;;14.73;12.00;;;16.80;99.90;;;;;;4973225;28;20030;-72
2021/06/09 02:25:59;;;;;;;14.10;12.50;;;16.70;99.90;;;;;;4980427;28;20444;-72
2021/06/09 02:28:30;;;;;;;14.02;12.20;;;16.70;99.90;;;;;;4972794;28;20093;-72
2021/06/09 02:30:59;;;;;;;13.85;12.45;;;16.70;99.90;;;;;;4989669;28;20620;-72
2021/06/09 02:33:27;;;;;;;13.50;12.07;;;16.70;99.90;;;;;;4993610;28;20022;-71
2021/06/09 02:35:56;;;;;;;13.95;12.18;;;16.60;99.90;;;;;;4994053;28;20042;-72
2021/06/09 02:38:24;;;;;;;15.60;13.10;;;16.70;99.90;;;;;;4994877;28;20025;-71
2021/06/09 02:40:51;;;;;;;14.35;12.82;;;16.70;99.90;;;;;;4979480;28;20038;-71
2021/06/09 02:43:17;;;;;;;14.63;12.98;;;16.70;99.90;;;;;;4994273;28;20027;-72
2021/06/09 02:45:52;;;;;;;14.15;12.70;;;16.70;99.90;;;;;;4985703;28;20110;-71
2021/06/09 02:48:21;;;;;;;15.48;12.82;;;16.60;99.90;;;;;;4991545;28;20031;-72
2021/06/09 02:50:47;;;;;;;14.73;13.23;;;16.60;99.90;;;;;;4978083;28;20125;-72
2021/06/09 02:53:34;;;;;;;15.35;13.50;;;16.60;99.90;;;;;;4977402;28;20105;-72
2021/06/09 02:56:41;;;;;;;13.18;11.88;;;16.60;99.90;;;;;;4990017;28;20034;-72
2021/06/09 02:59:41;;;;;;;14.57;12.90;;;16.60;99.90;;;;;;4992431;28;20042;-72
2021/06/09 03:02:13;;;;;;;13.70;12.25;;;16.60;99.90;;;;;;4977198;28;20152;-71
2021/06/09 03:05:12;;;;;;;13.70;12.20;;;16.50;99.90;;;;;;4993432;28;20018;-72
2021/06/09 03:07:51;;;;;;;16.13;13.23;;;16.60;99.90;;;;;;4990430;28;20034;-72
2021/06/09 03:10:21;;;;;;;15.93;12.45;;;16.50;99.90;;;;;;4976057;28;20046;-72
2021/06/09 03:12:57;;;;;;;14.98;13.15;;;16.50;99.90;;;;;;4995464;28;20092;-72
2021/06/09 03:15:40;;;;;;;13.88;12.05;;;16.50;99.90;;;;;;4992720;28;20041;-72
2021/06/09 03:18:15;;;;;;;13.80;12.25;;;16.50;99.90;;;;;;4996076;28;20035;-72
2021/06/09 03:20:58;;;;;;;13.52;12.13;;;16.50;99.90;;;;;;4978402;28;20022;-72
2021/06/09 03:23:44;;;;;;;14.55;12.68;;;16.50;99.90;;;;;;4988999;28;20621;-72
2021/06/09 03:26:33;;;;;;;16.48;13.75;;;16.50;99.90;;;;;;4978285;28;20122;-72
2021/06/09 03:29:08;;;;;;;14.57;12.48;;;16.50;99.90;;;;;;4986470;28;20428;-72
2021/06/09 03:31:45;;;;;;;14.20;11.65;;;16.50;99.90;;;;;;4993269;28;20040;-72
2021/06/09 03:34:31;;;;;;;16.00;13.73;;;16.50;99.90;;;;;;4997182;28;20030;-72
2021/06/09 03:37:00;;;;;;;14.30;12.40;;;16.50;99.90;;;;;;4999268;28;20841;-72
2021/06/09 03:39:26;;;;;;;15.05;13.32;;;16.50;99.90;;;;;;4976337;28;20034;-73
2021/06/09 03:41:56;;;;;;;14.35;12.50;;;16.50;99.90;;;;;;4988142;28;20053;-72
2021/06/09 03:44:31;;;;;;;14.60;12.18;;;16.50;99.90;;;;;;4980531;28;20117;-72
2021/06/09 03:46:57;;;;;;;14.40;12.90;;;16.50;99.90;;;;;;4993385;28;20076;-72
2021/06/09 03:49:25;;;;;;;14.52;12.93;;;16.50;99.90;;;;;;4995211;28;20035;-72
2021/06/09 03:51:54;;;;;;;14.73;13.02;;;16.50;99.90;;;;;;5001394;28;20026;-72
2021/06/09 03:54:29;;;;;;;14.20;12.77;;;16.50;99.90;;;;;;4987012;28;20350;-72
2021/06/09 03:56:59;;;;;;;15.70;13.85;;;16.50;99.90;;;;;;4972996;28;20034;-72
2021/06/09 03:59:28;;;;;;;14.60;13.07;;;16.50;99.90;;;;;;4988409;28;20111;-72
2021/06/09 04:01:56;;;;;;;15.65;13.82;;;16.50;99.90;;;;;;4982687;28;20022;-72
2021/06/09 04:04:24;;;;;;;14.18;12.70;;;16.60;99.90;;;;;;4992818;28;20469;-72
2021/06/09 04:06:54;;;;;;;16.60;12.20;;;16.50;99.90;;;;;;4985626;28;20042;-72
2021/06/09 04:09:24;;;;;;;13.80;12.27;;;16.60;99.90;;;;;;4990118;28;20096;-72
2021/06/09 04:11:59;;;;;;;15.27;13.70;;;16.60;99.90;;;;;;4988716;28;20037;-72
2021/06/09 04:14:37;;;;;;;18.75;13.07;;;16.60;99.90;;;;;;4988141;28;20038;-72
2021/06/09 04:17:04;;;;;;;14.27;12.77;;;16.60;99.90;;;;;;4989896;28;20905;-72
2021/06/09 04:19:32;;;;;;;15.10;13.00;;;16.60;99.90;;;;;;4979664;28;20073;-72
2021/06/09 04:22:00;;;;;;;16.02;13.73;;;16.60;99.90;;;;;;4987611;28;20033;-72
2021/06/09 04:24:30;;;;;;;13.68;12.32;;;16.70;99.90;;;;;;4979357;28;20483;-72
2021/06/09 04:26:58;;;;;;;14.98;12.48;;;16.70;99.90;;;;;;4960670;28;20229;-72
2021/06/09 04:29:24;;;;;;;14.80;13.20;;;16.70;99.90;;;;;;4975277;28;20038;-72
2021/06/09 04:31:54;;;;;;;14.15;12.40;;;16.70;99.90;;;;;;4988073;28;20861;-72
2021/06/09 04:34:20;;;;;;;15.23;12.80;;;16.80;99.90;;;;;;4995819;28;20167;-72
2021/06/09 04:36:52;;;;;;;13.30;11.88;;;16.80;99.90;;;;;;4994339;28;20027;-72
2021/06/09 04:39:18;;;;;;;;;;;16.80;99.90;;;;;;4978341;28;20039;-72
2021/06/09 04:41:44;;;;;;;13.77;12.40;;;16.80;99.90;;;;;;4997920;28;20307;-72
2021/06/09 04:44:14;;;;;;;15.15;12.90;;;16.80;99.90;;;;;;4992760;28;20506;-72
2021/06/09 04:46:44;;;;;;;14.55;13.05;;;16.90;99.90;;;;;;4979775;28;20045;-72
2021/06/09 04:49:12;;;;;;;13.43;12.02;;;16.90;99.90;;;;;;4994355;28;20379;-72
2021/06/09 04:51:40;;;;;;;13.35;11.68;;;17.00;99.90;;;;;;4991092;28;20117;-72
2021/06/09 04:54:08;;;;;;;13.55;12.02;;;17.00;99.90;;;;;;4962458;28;20038;-72
2021/06/09 04:56:38;;;;;;;13.82;12.35;;;17.10;99.90;;;;;;4974109;28;20537;-72
2021/06/09 04:59:06;;;;;;;13.20;11.85;;;17.10;99.90;;;;;;4970404;28;20041;-72
2021/06/09 05:01:32;;;;;;;14.55;13.00;;;17.20;99.90;;;;;;4986118;28;20575;-72
2021/06/09 05:04:00;;;;;;;13.90;12.40;;;17.20;99.90;;;;;;4975231;28;20054;-72
2021/06/09 05:06:28;;;;;;;12.90;11.60;;;17.30;99.90;;;;;;4985955;28;20031;-72
2021/06/09 05:08:54;;;;;;;13.18;11.82;;;17.30;99.90;;;;;;4976240;28;20049;-72
2021/06/09 05:11:27;;;;;;;14.23;12.73;;;17.40;99.90;;;;;;4987024;28;20042;-72
2021/06/09 05:13:52;;;;;;;13.43;11.88;;;17.40;99.90;;;;;;4970591;28;20026;-72
2021/06/09 05:16:18;;;;;;;12.82;11.48;;;17.50;99.90;;;;;;4986447;28;20053;-72
2021/06/09 05:18:52;;;;;;;12.38;11.13;;;17.50;99.90;;;;;;4970511;28;20034;-72
2021/06/09 05:21:20;;;;;;;13.18;11.85;;;17.60;99.90;;;;;;4986515;28;20027;-72
2021/06/09 05:23:49;;;;;;;13.23;11.93;;;17.60;99.90;;;;;;4986358;28;20105;-72
2021/06/09 05:26:15;;;;;;;13.20;11.90;;;17.60;99.90;;;;;;4972349;28;20057;-72
2021/06/09 05:28:45;;;;;;;14.52;13.02;;;17.70;99.90;;;;;;4977111;28;20168;-72
2021/06/09 05:31:11;;;;;;;13.68;12.27;;;17.70;99.90;;;;;;4986575;28;20049;-72
2021/06/09 05:33:42;;;;;;;13.75;12.25;;;17.80;99.90;;;;;;4973890;28;20457;-72
2021/06/09 05:36:07;;;;;;;14.35;12.85;;;17.80;99.90;;;;;;4975356;28;20585;-72
2021/06/09 05:38:33;;;;;;;14.65;12.07;;;17.80;99.90;;;;;;4969910;28;20051;-72
2021/06/09 05:41:02;;;;;;;14.68;12.15;;;17.90;99.90;;;;;;4977721;28;20121;-72
2021/06/09 05:43:31;;;;;;;12.57;11.23;;;17.90;99.90;;;;;;4990438;28;20031;-72
2021/06/09 05:46:02;;;;;;;12.88;11.57;;;18.00;99.90;;;;;;4985885;28;20037;-72
2021/06/09 05:48:29;;;;;;;13.45;12.00;;;18.00;99.90;;;;;;4986171;28;20039;-72
2021/06/09 05:50:56;;;;;;;16.58;14.40;;;18.00;99.90;;;;;;4975041;28;20019;-72
2021/06/09 05:53:26;;;;;;;14.32;12.82;;;18.00;99.90;;;;;;4973366;28;20031;-72
2021/06/09 05:55:56;;;;;;;15.18;12.27;;;18.10;99.90;;;;;;4999109;28;20030;-72
2021/06/09 05:58:22;;;;;;;15.88;14.27;;;18.10;99.90;;;;;;4997964;28;20030;-72
2021/06/09 06:00:56;;;;;;;18.17;16.30;;;18.10;99.90;;;;;;4987921;28;20040;-73
2021/06/09 06:03:22;;;;;;;16.13;14.43;;;18.20;99.90;;;;;;5000791;28;20045;-73
2021/06/09 06:05:51;;;;;;;16.13;14.35;;;18.20;99.90;;;;;;4986831;28;20049;-74
2021/06/09 06:08:17;;;;;;;14.95;13.48;;;18.20;99.90;;;;;;4983967;28;20045;-72
2021/06/09 06:10:42;;;;;;;16.00;14.38;;;18.30;99.90;;;;;;5000425;28;20399;-72
2021/06/09 06:13:10;;;;;;;14.73;13.23;;;18.40;99.90;;;;;;4989007;28;20034;-72
2021/06/09 06:15:38;;;;;;;15.30;13.80;;;18.40;99.90;;;;;;4996244;28;20100;-72
2021/06/09 06:18:06;;;;;;;15.55;13.95;;;18.50;99.90;;;;;;4992378;28;20488;-72
2021/06/09 06:20:32;;;;;;;15.70;14.07;;;18.60;99.90;;;;;;4996552;28;20031;-72
2021/06/09 06:22:57;;;;;;;15.95;14.25;;;18.60;99.90;;;;;;4998303;28;20056;-72
2021/06/09 06:25:24;;;;;;;15.77;14.27;;;18.70;99.90;;;;;;4984434;28;20037;-72
2021/06/09 06:27:53;;;;;;;15.13;13.60;;;18.70;99.90;;;;;;5000531;28;20364;-72
2021/06/09 06:30:20;;;;;;;14.55;13.05;;;18.80;99.90;;;;;;4991326;28;20061;-72
2021/06/09 06:32:50;;;;;;;15.95;13.68;;;18.90;99.90;;;;;;4996885;28;20045;-72
2021/06/09 06:35:20;;;;;;;15.70;14.20;;;19.00;99.90;;;;;;4996496;28;20034;-72
2021/06/09 06:37:49;;;;;;;14.02;12.52;;;19.00;99.90;;;;;;4992174;28;20449;-74
2021/06/09 06:40:22;;;;;;;14.80;13.27;;;19.10;99.90;;;;;;5003126;28;20034;-74
2021/06/09 06:42:53;;;;;;;16.90;14.77;;;19.20;99.90;;;;;;5001352;28;20048;-76
2021/06/09 06:45:22;;;;;;;17.85;15.98;;;19.20;99.90;;;;;;5000608;28;20049;-74
2021/06/09 06:47:52;;;;;;;14.20;12.80;;;19.30;99.90;;;;;;5002336;28;20034;-74
2021/06/09 06:50:18;;;;;;;14.15;12.75;;;19.40;99.90;;;;;;4986676;28;20022;-74
2021/06/09 06:52:44;;;;;;;14.50;13.00;;;19.50;99.90;;;;;;5001423;28;20028;-75
2021/06/09 06:55:11;;;;;;;14.80;13.30;;;19.60;99.90;;;;;;4989752;28;20081;-78
2021/06/09 06:57:39;;;;;;;15.23;13.63;;;19.70;99.90;;;;;;4998089;28;20027;-77
2021/06/09 07:00:12;;;;;;;17.25;15.48;;;19.80;99.90;;;;;;4994986;28;20057;-75
2021/06/09 07:02:41;;;;;;;15.40;13.77;;;19.90;99.90;;;;;;5000046;28;20034;-74
2021/06/09 07:05:14;;;;;;;15.25;13.20;;;20.00;99.90;;;;;;4998780;28;20113;-74
2021/06/09 07:07:49;;;;;;;16.58;14.48;;;20.00;99.90;;;;;;4988661;28;20128;-73
2021/06/09 07:10:16;;;;;;;14.27;12.77;;;20.10;99.90;;;;;;4979283;28;20486;-72
2021/06/09 07:12:42;;;;;;;14.50;13.00;;;20.10;99.90;;;;;;4996018;28;20053;-75
2021/06/09 07:15:11;;;;;;;15.13;13.52;;;20.20;99.90;;;;;;4998181;28;20041;-72
2021/06/09 07:17:42;;;;;;;14.45;13.05;;;20.20;99.90;;;;;;4996667;28;20117;-72
2021/06/09 07:20:12;;;;;;;14.35;12.85;;;20.30;99.90;;;;;;4991915;28;20151;-72
2021/06/09 07:22:39;;;;;;;14.32;12.88;;;20.40;99.90;;;;;;4996602;28;20054;-76
2021/06/09 07:25:06;;;;;;;15.48;13.98;;;20.50;99.90;;;;;;4982633;28;20033;-79
2021/06/09 07:27:45;;;;;;;14.90;13.40;;;20.70;99.90;;;;;;4978062;28;20042;-76
2021/06/09 07:30:11;;;;;;;14.38;12.90;;;20.80;99.90;;;;;;4991865;28;20022;-73
2021/06/09 07:32:45;;;;;;;14.13;12.52;;;20.90;99.90;;;;;;4988336;28;20117;-73
2021/06/09 07:35:11;;;;;;;13.73;12.13;;;21.10;99.90;;;;;;4995768;28;20037;-75
2021/06/09 07:37:40;;;;;;;14.52;13.23;;;21.20;99.90;;;;;;4994107;28;20029;-75
2021/06/09 07:40:07;;;;;;;14.90;13.40;;;21.40;99.90;;;;;;4996681;28;20022;-73
2021/06/09 07:42:33;;;;;;;14.75;13.25;;;21.60;99.90;;;;;;4995096;28;20109;-73
2021/06/09 07:45:07;;;;;;;14.48;13.07;;;21.80;99.90;;;;;;4994161;28;20029;-73
2021/06/09 07:47:35;;;;;;;13.75;12.35;;;22.00;99.90;;;;;;4992669;28;20954;-75
2021/06/09 07:50:05;;;;;;;15.50;13.90;;;22.10;99.90;;;;;;4997387;28;20621;-75
2021/06/09 07:52:32;;;;;;;15.25;13.65;;;22.20;99.90;;;;;;4997397;28;20395;-73
2021/06/09 07:54:58;;;;;;;15.25;13.77;;;22.40;99.90;;;;;;4992560;28;20037;-72
2021/06/09 07:57:32;;;;;;;14.27;12.88;;;22.70;99.90;;;;;;4990630;28;20030;-73
2021/06/09 08:00:01;;;;;;;15.52;13.85;;;22.80;99.90;;;;;;4997810;28;20459;-72
2021/06/09 08:02:26;;;;;;;13.73;12.32;;;23.00;99.90;;;;;;4992657;28;20048;-72
2021/06/09 08:04:52;;;;;;;13.10;11.90;;;23.00;99.90;;;;;;4991222;28;20039;-72
2021/06/09 08:07:18;;;;;;;12.68;11.38;;;23.00;99.90;;;;;;4974852;28;20022;-73
2021/06/09 08:09:48;;;;;;;13.88;12.50;;;23.10;99.90;;;;;;4998411;28;20026;-73
2021/06/09 08:12:14;;;;;;;13.80;12.40;;;23.30;99.90;;;;;;4995366;28;20058;-73
2021/06/09 08:14:40;;;;;;;13.57;12.27;;;23.30;99.90;;;;;;4980343;28;20061;-73
2021/06/09 08:17:08;;;;;;;12.82;11.43;;;23.40;99.90;;;;;;4988022;28;20057;-73
2021/06/09 08:19:33;;;;;;;12.73;11.43;;;23.50;99.90;;;;;;4995673;28;20037;-73
2021/06/09 08:21:59;;;;;;;12.85;11.10;;;23.60;99.90;;;;;;4994233;28;20554;-72
2021/06/09 08:24:27;;;;;;;11.82;10.63;;;23.60;99.90;;;;;;4989944;28;20035;-73
2021/06/09 08:27:01;;;;;;;11.32;10.23;;;23.60;99.90;;;;;;5002286;28;20571;-72
2021/06/09 08:29:29;;;;;;;11.48;10.38;;;23.60;99.90;;;;;;4994622;28;20034;-72
2021/06/09 08:31:54;;;;;;;12.55;11.30;;;23.50;99.90;;;;;;4998822;28;20045;-80
2021/06/09 08:34:22;;;;;;;11.10;10.10;;;23.40;99.90;;;;;;4990340;28;20034;-75
2021/06/09 08:36:49;;;;;;;12.55;9.95;;;23.30;99.90;;;;;;4997705;28;20034;-75
2021/06/09 08:39:17;;;;;;;10.95;9.85;;;23.20;99.90;;;;;;5002647;28;20049;-72
2021/06/09 08:41:45;;;;;;;10.43;9.43;;;23.00;99.90;;;;;;4994529;28;20037;-72
2021/06/09 08:44:11;;;;;;;11.02;9.88;;;22.90;99.90;;;;;;4982319;28;20018;-72
2021/06/09 08:46:39;;;;;;;10.93;9.82;;;22.90;99.90;;;;;;4996623;28;20097;-72
2021/06/09 08:49:04;;;;;;;10.48;9.35;;;22.80;99.90;;;;;;4989827;28;20161;-73
2021/06/09 08:51:36;;;;;;;10.27;9.25;;;22.80;99.90;;;;;;4992081;28;20072;-72
2021/06/09 08:54:02;;;;;;;;;;;22.80;99.90;;;;;;4990374;28;20531;-72
2021/06/09 08:56:33;;;;;;;10.07;9.10;;;22.70;99.90;;;;;;4990802;28;19940;-73
2021/06/09 08:58:59;;;;;;;10.63;9.50;;;22.60;99.90;;;;;;4977235;28;20026;-72
2021/06/09 09:01:25;;;;;;;11.25;9.25;;;22.70;99.90;;;;;;5004726;28;20034;-72
2021/06/09 09:03:52;;;;;;;10.52;9.48;;;22.70;99.90;;;;;;4989154;28;20031;-73
2021/06/09 09:06:24;;;;;;;9.70;8.70;;;22.80;99.90;;;;;;4980511;28;20024;-73
2021/06/09 09:08:53;;;;;;;10.48;8.80;;;22.80;99.90;;;;;;4990795;28;20029;-74
2021/06/09 09:11:19;;;;;;;9.25;8.30;;;22.70;99.90;;;;;;4990322;28;20018;-72
2021/06/09 09:13:47;;;;;;;9.55;8.35;;;22.80;99.90;;;;;;4976846;28;20125;-73
2021/06/09 09:16:13;;;;;;;9.02;8.13;;;22.80;99.90;;;;;;4980745;28;20032;-73
2021/06/09 09:19:01;;;;;;;9.15;8.25;;;22.90;99.90;;;;;;4987543;28;20603;-73
2021/06/09 09:21:38;;;;;;;8.15;7.35;;;23.00;99.90;;;;;;4993567;28;20018;-73
2021/06/09 09:24:07;;;;;;;15.80;14.20;;;23.20;99.90;;;;;;4991443;28;20060;-73
2021/06/09 09:26:35;;;;;;;8.30;7.32;;;23.30;99.90;;;;;;5006017;28;20027;-74
2021/06/09 09:29:18;;;;;;;9.20;8.20;;;23.40;99.90;;;;;;4990783;28;20034;-73
2021/06/09 09:31:56;;;;;;;8.23;7.43;;;23.50;99.90;;;;;;4995156;28;20058;-73
2021/06/09 09:34:30;;;;;;;8.55;7.75;;;23.60;99.90;;;;;;4989020;28;21886;-72
2021/06/09 09:37:11;;;;;;;8.77;7.85;;;23.60;99.90;;;;;;4963626;28;20034;-72
2021/06/09 09:39:40;;;;;;;9.52;8.48;;;23.70;99.90;;;;;;4992820;28;20031;-73
2021/06/09 09:42:30;;;;;;;8.75;7.82;;;23.80;99.90;;;;;;4988277;28;20034;-73
2021/06/09 09:45:15;;;;;;;9.00;8.10;;;23.80;99.90;;;;;;4992610;28;20026;-73
2021/06/09 09:47:43;;;;;;;9.63;8.63;;;23.80;99.90;;;;;;4997092;28;20077;-73
2021/06/09 09:50:28;;;;;;;9.70;8.10;;;23.80;99.90;;;;;;4991751;28;20045;-73
2021/06/09 09:52:58;;;;;;;8.20;7.30;;;23.90;99.90;;;;;;4995998;28;20187;-73
2021/06/09 09:55:24;;;;;;;28.88;26.10;;;24.10;99.90;;;;;;4990566;28;20031;-73
2021/06/09 09:57:54;;;;;;;12.05;10.85;;;24.30;99.90;;;;;;4991483;28;20199;-72
2021/06/09 10:00:34;;;;;;;10.45;9.40;;;24.50;99.90;;;;;;4978367;28;20860;-72
2021/06/09 10:03:18;;;;;;;11.13;9.30;;;24.60;99.90;;;;;;4984901;28;20448;-74
2021/06/09 10:05:46;;;;;;;10.10;8.68;;;24.60;99.90;;;;;;4995853;28;20670;-73
2021/06/09 10:08:12;;;;;;;12.63;9.20;;;24.60;99.90;;;;;;4976854;28;20081;-72
2021/06/09 10:10:38;;;;;;;10.05;8.55;;;24.60;99.90;;;;;;4992954;28;20057;-73
2021/06/09 10:13:09;;;;;;;10.15;8.57;;;24.50;99.90;;;;;;4978304;28;20034;-72
2021/06/09 10:15:47;;;;;;;9.90;8.85;;;24.40;99.90;;;;;;4970594;28;20038;-73
2021/06/09 10:18:15;;;;;;;10.30;9.13;;;24.30;99.90;;;;;;4986684;28;20423;-72
2021/06/09 10:20:41;;;;;;;9.20;8.27;;;24.20;99.90;;;;;;4986562;28;20022;-72
2021/06/09 10:23:27;;;;;;;9.45;8.55;;;24.00;99.90;;;;;;4988546;28;20501;-72
2021/06/09 10:26:11;;;;;;;9.57;8.18;;;24.00;99.90;;;;;;4984220;28;20039;-73
2021/06/09 10:29:18;;;;;;;10.02;9.02;;;24.00;99.90;;;;;;4978900;28;20026;-73
2021/06/09 10:31:49;;;;;;;9.95;8.95;;;23.90;99.90;;;;;;4984596;28;20115;-72
2021/06/09 10:34:20;;;;;;;9.57;8.57;;;23.70;99.90;;;;;;4988228;28;20026;-72
2021/06/09 10:36:50;;;;;;;9.65;8.60;;;23.70;99.90;;;;;;4979070;28;20042;-72
2021/06/09 10:39:19;;;;;;;9.82;8.55;;;23.70;99.90;;;;;;4992013;28;20038;-72
2021/06/09 10:41:50;;;;;;;9.10;8.20;;;23.60;99.90;;;;;;4987144;28;20045;-73
2021/06/09 10:44:21;;;;;;;10.38;9.23;;;23.60;99.90;;;;;;4990404;28;20492;-73
2021/06/09 10:46:53;;;;;;;11.07;9.70;;;23.60;99.90;;;;;;4991834;28;20034;-73
2021/06/09 10:49:20;;;;;;;11.75;9.98;;;23.60;99.90;;;;;;4988188;28;20033;-72
2021/06/09 10:51:47;;;;;;;12.10;10.90;;;23.60;99.90;;;;;;4991144;28;20088;-73
2021/06/09 10:54:14;;;;;;;12.13;10.95;;;23.60;99.90;;;;;;4987562;28;20034;-72
2021/06/09 10:56:46;;;;;;;10.75;9.73;;;23.60;99.90;;;;;;4997650;28;20041;-72
2021/06/09 10:59:13;;;;;;;11.27;10.07;;;23.60;99.90;;;;;;4999657;28;20065;-73
2021/06/09 11:01:41;;;;;;;11.20;10.20;;;23.70;99.90;;;;;;4992227;28;20030;-73
2021/06/09 11:04:09;;;;;;;12.32;10.60;;;23.90;99.90;;;;;;4989401;28;20113;-73
2021/06/09 11:06:46;;;;;;;11.88;9.60;;;24.10;99.90;;;;;;4997845;28;20045;-72
2021/06/09 11:09:17;;;;;;;9.25;8.20;;;24.40;99.90;;;;;;5006951;28;20035;-72
2021/06/09 11:11:46;;;;;;;9.43;7.53;;;24.60;99.90;;;;;;5007385;28;20065;-72
2021/06/09 11:14:24;;;;;;;8.40;7.50;;;24.60;99.90;;;;;;4990734;28;20337;-72
2021/06/09 11:16:55;;;;;;;8.82;7.78;;;24.60;99.90;;;;;;4993523;28;20046;-72
2021/06/09 11:19:39;;;;;;;8.48;7.43;;;24.60;92.90;;;;;;4990978;28;20045;-72
2021/06/09 11:22:23;;;;;;;9.85;7.72;;;24.60;93.00;;;;;;4991938;28;20030;-72
2021/06/09 11:25:10;;;;;;;8.43;7.00;;;24.50;99.90;;;;;;4986282;28;20050;-75
2021/06/09 11:27:36;;;;;;;7.65;6.30;;;24.40;91.00;;;;;;4988343;28;20049;-75
2021/06/09 11:30:25;;;;;;;7.28;5.97;;;24.40;99.90;;;;;;4987340;28;21320;-73
2021/06/09 11:32:51;;;;;;;6.82;5.63;;;24.30;93.50;;;;;;4993891;28;20364;-73
2021/06/09 11:35:20;;;;;;;8.77;6.00;;;24.40;92.80;;;;;;4995436;28;20034;-72
2021/06/09 11:38:14;;;;;;;6.68;5.97;;;24.30;94.00;;;;;;4981906;28;20724;-73
2021/06/09 11:40:49;;;;;;;7.47;6.57;;;24.40;98.00;;;;;;4987401;28;20487;-73
2021/06/09 11:43:18;;;;;;;7.38;6.57;;;24.30;95.70;;;;;;4990313;28;20030;-73
2021/06/09 11:46:03;;;;;;;7.88;6.05;;;24.40;99.90;;;;;;4981151;28;20030;-73
2021/06/09 11:48:31;;;;;;;7.97;6.15;;;24.60;99.90;;;;;;4987319;28;20123;-73
2021/06/09 11:51:16;;;;;;;6.57;5.78;;;24.80;99.90;;;;;;4988756;28;20109;-73
2021/06/09 11:53:44;;;;;;;6.78;5.70;;;24.90;97.60;;;;;;4995182;28;20114;-73
2021/06/09 11:56:20;;;;;;;6.18;5.07;;;25.20;96.50;;;;;;4982432;28;20044;-73
2021/06/09 11:58:49;;;;;;;6.90;5.50;;;25.40;91.90;;;;;;4995906;28;20114;-73
2021/06/09 12:01:16;;;;;;;7.10;5.63;;;25.50;95.00;;;;;;4988450;28;20455;-73
2021/06/09 12:03:42;;;;;;;6.25;5.20;;;25.70;92.90;;;;;;4985898;28;20100;-73
2021/06/09 12:06:23;;;;;;;5.93;5.10;;;25.90;93.40;;;;;;4980221;28;20030;-73
2021/06/09 12:08:51;;;;;;;6.80;5.20;;;26.00;78.50;;;;;;4984879;28;20038;-73
2021/06/09 12:11:18;;;;;;;5.88;5.28;;;26.00;80.50;;;;;;4997873;28;20121;-72
2021/06/09 12:13:47;;;;;;;6.57;4.82;;;26.00;86.20;;;;;;4978211;28;20660;-72
2021/06/09 12:16:19;;;;;;;6.35;4.80;;;25.90;80.20;;;;;;4989322;28;20403;-73
2021/06/09 12:18:48;;;;;;;6.32;5.32;;;26.00;90.50;;;;;;4992180;28;20333;-73
2021/06/09 12:21:20;;;;;;;5.90;4.78;;;26.00;86.00;;;;;;4995982;28;20265;-73
2021/06/09 12:23:59;;;;;;;7.43;5.03;;;26.10;80.90;;;;;;4979491;28;20026;-75
2021/06/09 12:26:25;;;;;;;7.68;6.28;;;26.20;82.20;;;;;;4984371;28;20101;-75
2021/06/09 12:29:24;;;;;;;7.55;5.90;;;26.40;84.30;;;;;;4986712;28;20018;-72
2021/06/09 12:31:50;;;;;;;7.88;4.60;;;26.50;79.20;;;;;;5005526;28;20069;-73
2021/06/09 12:34:23;;;;;;;6.95;4.63;;;26.50;78.90;;;;;;4975636;28;20050;-73
2021/06/09 12:37:06;;;;;;;5.45;4.82;;;26.40;70.90;;;;;;4987939;28;20022;-72
2021/06/09 12:39:32;;;;;;;5.60;4.70;;;26.30;80.60;;;;;;4991288;28;20018;-73
2021/06/09 12:41:58;;;;;;;6.65;4.70;;;26.20;77.00;;;;;;4968615;28;20033;-73
2021/06/09 12:44:24;;;;;;;6.18;4.57;;;26.30;71.90;;;;;;4993787;28;20030;-73
2021/06/09 12:47:00;;;;;;;5.97;4.53;;;26.40;76.40;;;;;;4987205;28;20021;-73
2021/06/09 12:49:33;;;;;;;6.18;4.65;;;26.50;75.60;;;;;;5004662;28;20033;-73